Terminal Aerodrome Forecast
Issued by NWS Twin Cities, MN

Home | Current Version | Previous Version | Text Only | Print | Product List | Glossary Off
Versions: 1 2 3 4 5 6 7 8 9 10 11 12 13 14 15 16 17 18

000
FTUS43 KMPX 312336
TAFSTC
TAF
KSTC 312336Z 0100/0124 09005KT P6SM SCT090
     FM011000 13012KT P6SM SCT200
     FM011500 16018G30KT P6SM BKN200
     FM012100 23017G26KT P6SM VCSH BKN060 OVC120=

USA.gov is the U.S. government's official web portal to all federal, state and local government web resources and services.